createdAt,value
2022-09-04T00:00:19.456Z,20.80
2022-09-04T00:02:55.519Z,20.80
2022-09-04T00:05:33.785Z,20.70
2022-09-04T00:08:38.226Z,20.70
2022-09-04T00:11:08.761Z,20.60
2022-09-04T00:13:39.922Z,20.50
2022-09-04T00:16:17.805Z,20.50
2022-09-04T00:19:06.150Z,20.50
2022-09-04T00:22:00.770Z,20.40
2022-09-04T00:24:33.229Z,20.40
2022-09-04T00:27:26.140Z,20.40
2022-09-04T00:30:11.652Z,20.40
2022-09-04T00:32:45.751Z,20.40
2022-09-04T00:35:39.419Z,20.30
2022-09-04T00:38:19.469Z,20.30
2022-09-04T00:40:59.693Z,20.30
2022-09-04T00:44:01.765Z,20.30
2022-09-04T00:46:52.048Z,20.30
2022-09-04T00:49:42.482Z,20.30
2022-09-04T00:52:15.422Z,20.30
2022-09-04T00:55:01.140Z,20.20
2022-09-04T00:57:43.122Z,20.20
2022-09-04T01:00:15.930Z,20.20
2022-09-04T01:02:48.610Z,20.10
2022-09-04T01:05:33.439Z,20.10
2022-09-04T01:08:07.712Z,20.10
2022-09-04T01:10:53.329Z,20.10
2022-09-04T01:13:36.313Z,20.10
2022-09-04T01:16:20.203Z,20.10
2022-09-04T01:19:16.150Z,20.10
2022-09-04T01:22:17.246Z,20.10
2022-09-04T01:25:21.808Z,20.10
2022-09-04T01:28:06.279Z,20.00
2022-09-04T01:30:56.502Z,20.00
2022-09-04T01:33:32.254Z,19.90
2022-09-04T01:36:19.987Z,19.90
2022-09-04T01:38:55.766Z,19.90
2022-09-04T01:41:45.491Z,19.80
2022-09-04T01:44:12.618Z,19.80
2022-09-04T01:46:41.761Z,19.80
2022-09-04T01:49:21.142Z,19.70
2022-09-04T01:52:36.758Z,19.70
2022-09-04T01:55:09.269Z,19.70
2022-09-04T01:58:00.544Z,19.60
2022-09-04T02:00:28.235Z,19.70
2022-09-04T02:03:19.398Z,19.60
2022-09-04T02:06:24.401Z,19.50
2022-09-04T02:09:15.506Z,19.50
2022-09-04T02:11:48.771Z,19.40
2022-09-04T02:14:49.091Z,19.40
2022-09-04T02:17:32.673Z,19.40
2022-09-04T02:20:12.171Z,19.30
2022-09-04T02:23:07.138Z,19.30
2022-09-04T02:25:39.122Z,19.30
2022-09-04T02:28:23.833Z,19.20
2022-09-04T02:31:11.003Z,19.20
2022-09-04T02:34:09.871Z,19.20
2022-09-04T02:36:46.172Z,19.10
2022-09-04T02:39:23.304Z,19.10
2022-09-04T02:42:04.408Z,19.10
2022-09-04T02:44:37.054Z,19.10
2022-09-04T02:47:41.579Z,19.00
2022-09-04T02:50:26.383Z,19.00
2022-09-04T02:52:53.270Z,19.00
2022-09-04T02:55:50.563Z,18.90
2022-09-04T02:58:28.071Z,18.90
2022-09-04T03:01:03.093Z,18.90
2022-09-04T03:03:35.870Z,18.80
2022-09-04T03:06:16.051Z,18.80
2022-09-04T03:08:49.815Z,18.80
2022-09-04T03:11:34.390Z,18.80
2022-09-04T03:14:16.493Z,18.80
2022-09-04T03:17:16.355Z,18.80
2022-09-04T03:19:50.686Z,18.80
2022-09-04T03:22:33.637Z,18.80
2022-09-04T03:25:21.490Z,18.80
2022-09-04T03:27:48.333Z,18.80
2022-09-04T03:30:15.347Z,18.80
2022-09-04T03:32:57.310Z,18.70
2022-09-04T03:35:36.066Z,18.70
2022-09-04T03:38:17.729Z,18.70
2022-09-04T03:41:13.413Z,18.60
2022-09-04T03:43:55.973Z,18.70
2022-09-04T03:46:26.215Z,18.60
2022-09-04T03:49:11.121Z,18.60
2022-09-04T03:51:55.731Z,18.60
2022-09-04T03:55:01.117Z,18.50
2022-09-04T03:57:51.957Z,18.50
2022-09-04T04:00:20.484Z,18.50
2022-09-04T04:03:05.961Z,18.50
2022-09-04T04:05:48.703Z,18.50
2022-09-04T04:08:41.675Z,18.50
2022-09-04T04:11:30.233Z,18.50
2022-09-04T04:14:15.486Z,18.50
2022-09-04T04:16:57.439Z,18.40
2022-09-04T04:19:32.057Z,18.40
2022-09-04T04:22:10.846Z,18.40
2022-09-04T04:24:48.190Z,18.40
2022-09-04T04:27:27.112Z,18.30
2022-09-04T04:30:03.518Z,18.30
2022-09-04T04:32:41.674Z,18.30
2022-09-04T04:35:19.862Z,18.20
2022-09-04T04:38:10.082Z,18.20
2022-09-04T04:40:51.862Z,18.20
2022-09-04T04:43:26.803Z,18.20
2022-09-04T04:46:43.730Z,18.20
2022-09-04T04:49:41.430Z,18.20
2022-09-04T04:52:23.372Z,18.10
2022-09-04T04:55:05.392Z,18.10
2022-09-04T04:57:41.364Z,18.10
2022-09-04T05:00:10.802Z,18.00
2022-09-04T05:03:01.378Z,18.00
2022-09-04T05:05:43.728Z,18.00
2022-09-04T05:08:14.922Z,18.00
2022-09-04T05:10:47.558Z,18.00
2022-09-04T05:13:32.647Z,18.00
2022-09-04T05:16:19.227Z,18.00
2022-09-04T05:19:10.993Z,18.00
2022-09-04T05:21:39.994Z,18.00
2022-09-04T05:24:28.575Z,18.00
2022-09-04T05:26:58.493Z,18.00
2022-09-04T05:29:43.546Z,18.00
2022-09-04T05:32:39.828Z,18.00
2022-09-04T05:35:13.703Z,18.10
2022-09-04T05:37:59.536Z,18.10
2022-09-04T05:40:31.019Z,18.10
2022-09-04T05:43:29.182Z,18.20
2022-09-04T05:46:05.574Z,18.20
2022-09-04T05:48:45.007Z,18.30
2022-09-04T05:51:39.695Z,18.40
2022-09-04T05:54:25.667Z,18.40
2022-09-04T05:57:30.114Z,18.40
2022-09-04T06:00:23.090Z,18.50
2022-09-04T06:02:55.541Z,18.60
2022-09-04T06:05:24.497Z,18.60
2022-09-04T06:08:12.748Z,18.70
2022-09-04T06:11:03.936Z,18.80
2022-09-04T06:13:55.426Z,18.80
2022-09-04T06:16:31.015Z,18.90
2022-09-04T06:19:25.181Z,18.90
2022-09-04T06:22:14.474Z,19.00
2022-09-04T06:25:09.473Z,19.10
2022-09-04T06:28:01.850Z,19.20
2022-09-04T06:30:55.795Z,19.20
2022-09-04T06:33:32.725Z,19.20
2022-09-04T06:36:30.932Z,19.30
2022-09-04T06:39:42.638Z,19.40
2022-09-04T06:42:35.697Z,19.50
2022-09-04T06:45:19.042Z,19.60
2022-09-04T06:48:10.707Z,19.80
2022-09-04T06:50:43.861Z,19.90
2022-09-04T06:53:39.020Z,20.20
2022-09-04T06:56:14.465Z,20.60
2022-09-04T06:59:02.240Z,20.60
2022-09-04T07:01:46.853Z,20.60
2022-09-04T07:04:27.014Z,20.60
2022-09-04T07:07:02.242Z,20.70
2022-09-04T07:09:35.322Z,20.80
2022-09-04T07:12:14.719Z,20.90
2022-09-04T07:15:12.493Z,21.00
2022-09-04T07:18:08.215Z,21.00
2022-09-04T07:20:54.340Z,21.00
2022-09-04T07:23:27.665Z,21.10
2022-09-04T07:26:32.267Z,21.20
2022-09-04T07:29:29.690Z,21.30
2022-09-04T07:32:11.674Z,21.30
2022-09-04T07:34:55.621Z,21.40
2022-09-04T07:37:58.438Z,21.40
2022-09-04T07:40:27.954Z,21.40
2022-09-04T07:43:00.246Z,21.50
2022-09-04T07:45:47.475Z,21.60
2022-09-04T07:48:24.834Z,21.60
2022-09-04T07:51:04.806Z,21.60
2022-09-04T07:53:40.607Z,21.70
2022-09-04T07:56:31.120Z,21.90
2022-09-04T07:59:13.517Z,22.00
2022-09-04T08:01:47.104Z,22.10
2022-09-04T08:04:24.276Z,22.20
2022-09-04T08:07:10.810Z,22.40
2022-09-04T08:10:03.427Z,22.50
2022-09-04T08:13:03.197Z,22.70
2022-09-04T08:15:44.000Z,22.90
2022-09-04T08:18:35.295Z,22.80
2022-09-04T08:21:33.358Z,22.90
2022-09-04T08:24:00.255Z,22.90
2022-09-04T08:26:48.215Z,23.10
2022-09-04T08:29:18.191Z,23.10
2022-09-04T08:32:18.925Z,23.10
2022-09-04T08:35:21.135Z,23.20
2022-09-04T08:38:12.634Z,23.30
2022-09-04T08:41:08.958Z,23.30
2022-09-04T08:44:09.630Z,23.40
2022-09-04T08:47:01.703Z,23.50
2022-09-04T08:50:06.090Z,23.60
2022-09-04T08:52:53.703Z,23.70
2022-09-04T08:55:28.147Z,23.80
2022-09-04T08:58:21.932Z,23.90
2022-09-04T09:01:26.457Z,24.00
2022-09-04T09:04:14.382Z,24.10
2022-09-04T09:07:02.202Z,24.20
2022-09-04T09:09:50.914Z,24.30
2022-09-04T09:12:56.082Z,24.50
2022-09-04T09:15:53.215Z,24.50
2022-09-04T09:18:37.065Z,24.60
2022-09-04T09:21:40.262Z,24.70
2022-09-04T09:24:09.918Z,24.70
2022-09-04T09:27:08.135Z,24.70
2022-09-04T09:30:14.994Z,24.80
2022-09-04T09:32:44.409Z,24.80
2022-09-04T09:35:33.206Z,24.90
2022-09-04T09:38:20.037Z,25.00
2022-09-04T09:41:08.560Z,25.10
2022-09-04T09:43:51.521Z,25.00
2022-09-04T09:46:38.570Z,25.10
2022-09-04T09:49:05.396Z,25.10
2022-09-04T09:51:57.094Z,25.30
2022-09-04T09:54:29.893Z,25.30
2022-09-04T09:57:21.939Z,25.50
2022-09-04T10:00:17.521Z,25.70
2022-09-04T10:02:55.788Z,25.90
2022-09-04T10:05:35.891Z,25.90
2022-09-04T10:08:36.045Z,25.90
2022-09-04T10:11:15.214Z,26.00
2022-09-04T10:14:28.367Z,26.20
2022-09-04T10:16:57.170Z,26.50
2022-09-04T10:20:01.429Z,26.50
2022-09-04T10:22:44.015Z,26.70
2022-09-04T10:25:31.418Z,27.00
2022-09-04T10:28:07.242Z,27.10
2022-09-04T10:30:55.441Z,26.90
2022-09-04T10:33:43.193Z,27.00
2022-09-04T10:36:30.969Z,27.00
2022-09-04T10:39:51.127Z,27.00
2022-09-04T10:42:17.997Z,27.20
2022-09-04T10:44:54.620Z,27.20
2022-09-04T10:47:45.100Z,27.10
2022-09-04T10:50:13.552Z,27.00
2022-09-04T10:52:55.579Z,27.10
2022-09-04T10:55:43.890Z,27.10
2022-09-04T10:58:30.065Z,27.30
2022-09-04T11:01:21.371Z,27.40
2022-09-04T11:04:03.823Z,27.60
2022-09-04T11:06:52.883Z,27.70
2022-09-04T11:09:44.810Z,27.70
2022-09-04T11:12:56.050Z,27.90
2022-09-04T11:15:34.931Z,27.90
2022-09-04T11:18:04.541Z,27.90
2022-09-04T11:20:50.150Z,27.80
2022-09-04T11:23:50.766Z,27.70
2022-09-04T11:26:50.959Z,27.50
2022-09-04T11:29:55.938Z,27.30
2022-09-04T11:32:32.133Z,27.30
2022-09-04T11:35:36.483Z,27.30
2022-09-04T11:38:19.461Z,27.40
2022-09-04T11:41:09.837Z,27.20
2022-09-04T11:44:18.383Z,27.20
2022-09-04T11:46:47.171Z,27.40
2022-09-04T11:49:48.120Z,27.60
2022-09-04T11:52:28.273Z,27.90
2022-09-04T11:55:18.365Z,28.10
2022-09-04T11:58:03.307Z,28.20
2022-09-04T12:00:43.170Z,28.20
2022-09-04T12:03:33.490Z,28.00
2022-09-04T12:06:10.770Z,28.10
2022-09-04T12:09:06.870Z,28.10
2022-09-04T12:11:52.657Z,28.10
2022-09-04T12:14:50.123Z,28.20
2022-09-04T12:17:33.606Z,28.40
2022-09-04T12:20:38.139Z,28.40
2022-09-04T12:23:12.831Z,28.60
2022-09-04T12:26:00.344Z,28.90
2022-09-04T12:28:55.755Z,29.00
2022-09-04T12:31:38.274Z,28.90
2022-09-04T12:34:20.372Z,29.10
2022-09-04T12:36:59.486Z,29.20
2022-09-04T12:39:56.201Z,29.20
2022-09-04T12:42:30.685Z,28.90
2022-09-04T12:45:15.734Z,28.80
2022-09-04T12:48:03.927Z,28.90
2022-09-04T12:50:55.527Z,29.20
2022-09-04T12:53:49.251Z,29.30
2022-09-04T12:56:42.157Z,29.20
2022-09-04T12:59:15.968Z,29.20
2022-09-04T13:02:04.532Z,29.20
2022-09-04T13:04:40.884Z,29.20
2022-09-04T13:07:24.593Z,29.40
2022-09-04T13:10:16.901Z,29.50
2022-09-04T13:13:14.714Z,29.50
2022-09-04T13:16:00.496Z,29.60
2022-09-04T13:18:39.180Z,29.60
2022-09-04T13:21:31.082Z,29.60
2022-09-04T13:24:03.967Z,29.70
2022-09-04T13:26:42.682Z,29.80
2022-09-04T13:29:16.231Z,29.90
2022-09-04T13:32:21.074Z,29.70
2022-09-04T13:35:25.195Z,29.70
2022-09-04T13:38:15.254Z,29.50
2022-09-04T13:41:06.058Z,29.60
2022-09-04T13:44:14.270Z,29.40
2022-09-04T13:46:47.115Z,29.60
2022-09-04T13:49:19.904Z,29.40
2022-09-04T13:52:11.034Z,29.10
2022-09-04T13:54:44.060Z,28.90
2022-09-04T13:57:18.166Z,29.00
2022-09-04T13:59:48.999Z,29.30
2022-09-04T14:02:20.135Z,28.90
2022-09-04T14:04:48.878Z,28.30
2022-09-04T14:07:36.172Z,28.30
2022-09-04T14:10:14.700Z,28.40
2022-09-04T14:12:57.875Z,28.50
2022-09-04T14:15:46.150Z,28.00
2022-09-04T14:18:37.690Z,27.70
2022-09-04T14:21:18.395Z,27.30
2022-09-04T14:24:22.793Z,26.70
2022-09-04T14:27:15.770Z,26.40
2022-09-04T14:30:00.918Z,26.40
2022-09-04T14:32:52.230Z,26.50
2022-09-04T14:35:35.849Z,26.30
2022-09-04T14:38:27.974Z,25.90
2022-09-04T14:41:00.711Z,25.40
2022-09-04T14:43:29.991Z,25.30
2022-09-04T14:46:15.183Z,25.30
2022-09-04T14:48:44.599Z,25.30
2022-09-04T14:51:16.122Z,25.30
2022-09-04T14:53:48.299Z,25.50
2022-09-04T14:56:23.308Z,25.40
2022-09-04T14:58:56.350Z,25.40
2022-09-04T15:01:24.665Z,25.40
2022-09-04T15:04:10.169Z,25.40
2022-09-04T15:07:10.287Z,25.30
2022-09-04T15:09:42.226Z,25.20
2022-09-04T15:12:26.593Z,25.20
2022-09-04T15:15:29.316Z,25.20
2022-09-04T15:18:10.898Z,25.00
2022-09-04T15:20:38.698Z,25.00
2022-09-04T15:23:17.650Z,25.00
2022-09-04T15:26:00.525Z,24.90
2022-09-04T15:28:42.078Z,24.70
2022-09-04T15:31:20.984Z,24.90
2022-09-04T15:33:48.269Z,24.90
2022-09-04T15:36:21.220Z,24.90
2022-09-04T15:38:51.090Z,25.10
2022-09-04T15:41:34.223Z,25.10
2022-09-04T15:44:38.306Z,25.20
2022-09-04T15:47:36.656Z,25.40
2022-09-04T15:50:16.598Z,25.60
2022-09-04T15:53:09.174Z,25.70
2022-09-04T15:55:40.347Z,25.70
2022-09-04T15:58:19.714Z,26.00
2022-09-04T16:00:56.481Z,26.10
2022-09-04T16:03:29.303Z,26.20
2022-09-04T16:06:16.072Z,26.30
2022-09-04T16:08:47.989Z,26.40
2022-09-04T16:11:28.571Z,26.60
2022-09-04T16:14:03.165Z,26.80
2022-09-04T16:16:49.453Z,27.30
2022-09-04T16:19:34.554Z,27.60
2022-09-04T16:22:07.536Z,27.60
2022-09-04T16:25:10.251Z,27.20
2022-09-04T16:27:49.449Z,27.20
2022-09-04T16:30:54.565Z,26.90
2022-09-04T16:33:28.037Z,27.30
2022-09-04T16:36:01.582Z,27.90
2022-09-04T16:38:52.494Z,28.50
2022-09-04T16:41:25.669Z,28.60
2022-09-04T16:44:32.682Z,27.70
2022-09-04T16:47:03.103Z,26.90
2022-09-04T16:49:31.335Z,26.60
2022-09-04T16:52:22.496Z,26.50
2022-09-04T16:55:07.781Z,26.30
2022-09-04T16:57:56.033Z,26.10
2022-09-04T17:00:24.135Z,26.00
2022-09-04T17:02:57.556Z,25.90
2022-09-04T17:05:55.951Z,25.70
2022-09-04T17:08:44.538Z,25.60
2022-09-04T17:11:14.186Z,25.80
2022-09-04T17:14:05.291Z,26.20
2022-09-04T17:17:17.021Z,26.40
2022-09-04T17:20:01.272Z,26.00
2022-09-04T17:26:41.172Z,25.60
2022-09-04T17:29:08.336Z,25.00
2022-09-04T17:29:14.872Z,25.30
2022-09-04T17:31:28.541Z,24.70
2022-09-04T17:38:53.724Z,24.40
2022-09-04T17:40:37.987Z,24.20
2022-09-04T17:40:49.397Z,24.10
2022-09-04T17:43:14.833Z,24.00
2022-09-04T17:46:06.739Z,23.90
2022-09-04T17:48:38.459Z,23.90
2022-09-04T17:51:06.086Z,23.90
2022-09-04T17:53:34.988Z,23.90
2022-09-04T17:56:08.458Z,23.80
2022-09-04T17:58:40.366Z,23.70
2022-09-04T18:01:14.141Z,23.60
2022-09-04T18:04:21.688Z,23.50
2022-09-04T18:06:57.227Z,23.50
2022-09-04T18:09:46.173Z,23.40
2022-09-04T18:12:26.685Z,23.20
2022-09-04T18:15:25.227Z,23.20
2022-09-04T18:18:14.086Z,23.10
2022-09-04T18:21:07.008Z,23.00
2022-09-04T18:23:51.574Z,23.00
2022-09-04T18:26:22.379Z,22.90
2022-09-04T18:30:11.863Z,22.90
2022-09-04T18:37:09.478Z,22.90
2022-09-04T18:37:18.216Z,22.80
2022-09-04T18:37:55.043Z,22.70
2022-09-04T18:46:39.979Z,22.70
2022-09-04T18:50:33.813Z,22.50
2022-09-04T18:50:39.465Z,22.60
2022-09-04T18:50:44.415Z,22.50
2022-09-04T18:52:14.005Z,22.50
2022-09-04T18:54:53.831Z,22.50
2022-09-04T18:57:56.447Z,22.60
2022-09-04T19:00:35.103Z,22.50
2022-09-04T19:03:13.166Z,22.50
2022-09-04T19:05:44.675Z,22.50
2022-09-04T19:08:32.317Z,22.40
2022-09-04T19:11:17.458Z,22.40
2022-09-04T19:13:55.293Z,22.30
2022-09-04T19:16:49.108Z,22.30
2022-09-04T19:19:32.884Z,22.00
2022-09-04T19:22:17.924Z,22.20
2022-09-04T19:24:51.842Z,22.20
2022-09-04T19:27:28.581Z,22.20
2022-09-04T19:30:19.718Z,22.20
2022-09-04T19:33:00.418Z,22.20
2022-09-04T19:35:38.302Z,22.20
2022-09-04T19:42:07.475Z,22.20
2022-09-04T19:46:08.223Z,22.20
2022-09-04T19:46:12.706Z,22.20
2022-09-04T19:47:29.163Z,22.20
2022-09-04T19:53:18.302Z,22.10
2022-09-04T19:53:31.295Z,22.10
2022-09-04T19:55:47.611Z,22.00
2022-09-04T19:58:21.593Z,22.00
2022-09-04T20:00:59.475Z,22.00
2022-09-04T20:04:06.053Z,22.00
2022-09-04T20:06:36.510Z,22.00
2022-09-04T20:09:14.414Z,22.00
2022-09-04T20:11:46.450Z,22.00
2022-09-04T20:14:22.333Z,21.90
2022-09-04T20:17:11.742Z,21.90
2022-09-04T20:19:44.995Z,21.90
2022-09-04T20:22:26.953Z,21.90
2022-09-04T20:25:06.776Z,21.90
2022-09-04T20:27:46.058Z,21.90
2022-09-04T20:30:24.858Z,21.90
2022-09-04T20:33:01.802Z,21.80
2022-09-04T20:35:41.035Z,21.80
2022-09-04T20:38:32.600Z,21.70
2022-09-04T20:41:15.757Z,21.70
2022-09-04T20:44:13.666Z,21.70
2022-09-04T20:52:45.514Z,21.60
2022-09-04T20:52:55.271Z,21.60
2022-09-04T20:53:12.250Z,21.50
2022-09-04T20:56:38.172Z,21.50
2022-09-04T21:03:10.003Z,21.40
2022-09-04T21:03:17.496Z,21.40
2022-09-04T21:05:50.528Z,21.30
2022-09-04T21:08:35.566Z,21.30
2022-09-04T21:11:12.653Z,21.20
2022-09-04T21:13:56.391Z,21.20
2022-09-04T21:16:44.478Z,21.10
2022-09-04T21:19:28.582Z,21.10
2022-09-04T21:22:21.125Z,21.10
2022-09-04T21:25:12.205Z,21.00
2022-09-04T21:28:05.075Z,20.90
2022-09-04T21:30:42.626Z,20.90
2022-09-04T21:33:27.064Z,20.90
2022-09-04T21:36:26.731Z,20.90
2022-09-04T21:39:23.230Z,20.90
2022-09-04T21:42:01.631Z,20.90
2022-09-04T21:44:52.227Z,20.80
2022-09-04T21:47:44.879Z,20.80
2022-09-04T21:50:30.549Z,20.70
2022-09-04T21:53:19.309Z,20.70
2022-09-04T22:00:08.050Z,20.60
2022-09-04T22:02:36.340Z,20.60
2022-09-04T22:02:59.282Z,20.60
2022-09-04T22:05:35.617Z,20.60
2022-09-04T22:13:33.142Z,20.60
2022-09-04T22:13:39.419Z,20.50
2022-09-04T22:14:39.526Z,20.50
2022-09-04T22:17:15.554Z,20.50
2022-09-04T22:20:08.193Z,20.50
2022-09-04T22:23:08.738Z,20.40
2022-09-04T22:26:09.202Z,20.40
2022-09-04T22:29:10.566Z,20.40
2022-09-04T22:31:46.187Z,20.40
2022-09-04T22:34:42.302Z,20.40
2022-09-04T22:37:27.927Z,20.30
2022-09-04T22:40:16.206Z,20.30
2022-09-04T22:42:49.675Z,20.40
2022-09-04T22:45:34.936Z,20.30
2022-09-04T22:48:11.409Z,20.30
2022-09-04T22:50:50.975Z,20.40
2022-09-04T22:54:05.938Z,20.30
2022-09-04T22:56:51.248Z,20.30
2022-09-04T22:59:35.986Z,20.30
2022-09-04T23:02:13.511Z,20.30
2022-09-04T23:05:02.050Z,20.30
2022-09-04T23:12:13.546Z,20.20
2022-09-04T23:13:58.087Z,20.20
2022-09-04T23:14:07.973Z,20.20
2022-09-04T23:16:58.118Z,20.20
2022-09-04T23:22:27.709Z,20.20
2022-09-04T23:26:44.824Z,20.20
2022-09-04T23:26:45.501Z,20.20
2022-09-04T23:28:48.290Z,20.10
2022-09-04T23:31:37.775Z,20.10
2022-09-04T23:34:30.186Z,20.10
2022-09-04T23:36:56.961Z,20.10
2022-09-04T23:39:51.519Z,20.00
2022-09-04T23:42:39.072Z,19.90
2022-09-04T23:45:24.113Z,19.90
2022-09-04T23:48:05.804Z,19.90
2022-09-04T23:51:04.607Z,19.90
2022-09-04T23:53:42.934Z,19.90
2022-09-04T23:56:26.050Z,19.90
2022-09-04T23:59:35.811Z,19.90
